Terminal Aerodrome Forecast
Issued by NWS Shreveport, LA

Home | Current Version | Previous Version | Text Only | Print | Product List | Glossary On
Versions: 1 2 3 4 5 6 7 8 9 10 11 12 13 14 15 16
000
FTUS44 KSHV 212348
TAFSHV
TAF
KSHV 212348Z 2200/2224 14007KT P6SM FEW045 SCT100 BKN280
     FM220600 16011KT P6SM BKN015
     FM220900 19011KT P6SM VCTS BKN015CB OVC030
      TEMPO 2209/2213 VRB15G20KT 2SM TSRA BR BKN008CB OVC015
     FM221300 27012KT 6SM -RA OVC015
     FM221600 30012G18KT P6SM BKN015=

USA.gov is the U.S. government's official web portal to all federal, state and local government web resources and services.